IGO5283 VABB-VAAH
Flight info
| Callsign | IGO5283 |
|---|---|
| Flight time | 0h 53m |
| Altitude | 31000 |
| Route | ANOLI2A ISRIS G208 APANO APANO1A |
| Aircraft | A20N/M-SDE2E3FGHIRWXY/LB1 |
Departure
| Time | 2026-04-29 17:00 |
|---|---|
| Airport | Chhatrapati Shivaji Maharaj International Airport (VABB) |
Arrival
| Time | 2026-04-29 17:53 |
|---|---|
| Airport | Sardar Vallabh Patel International Airport (VAAH) |
| Time | Latitude | Longitude | Altitude | Speed | Heading |
|---|---|---|---|---|---|
| 2026-04-29 16:15 | 19.09376 | 72.87285 | 34 ft | 0 kts | 308° |
| 2026-04-29 16:45 | 19.09367 | 72.87297 | 33 ft | 3 kts | 304° |
| 2026-04-29 16:45 | 19.09355 | 72.87316 | 31 ft | 3 kts | 300° |
| 2026-04-29 16:45 | 19.09345 | 72.87336 | 32 ft | 3 kts | 301° |
| 2026-04-29 16:46 | 19.09333 | 72.87354 | 32 ft | 3 kts | 321° |
| 2026-04-29 16:46 | 19.09319 | 72.87362 | 31 ft | 0 kts | 5° |
| 2026-04-29 16:50 | 19.09322 | 72.87362 | 30 ft | 2 kts | 5° |
| 2026-04-29 16:50 | 19.09348 | 72.87366 | 33 ft | 6 kts | 14° |
| 2026-04-29 16:50 | 19.09392 | 72.87398 | 33 ft | 10 kts | 43° |
| 2026-04-29 16:50 | 19.09417 | 72.87469 | 34 ft | 12 kts | 105° |
| 2026-04-29 16:51 | 19.09370 | 72.87555 | 35 ft | 15 kts | 122° |
| 2026-04-29 16:51 | 19.09295 | 72.87642 | 35 ft | 17 kts | 126° |
| 2026-04-29 16:51 | 19.09299 | 72.87754 | 36 ft | 11 kts | 114° |
| 2026-04-29 16:51 | 19.09266 | 72.87767 | 36 ft | 5 kts | 183° |
| 2026-04-29 16:52 | 19.09218 | 72.87762 | 36 ft | 9 kts | 186° |
| 2026-04-29 16:52 | 19.09153 | 72.87776 | 36 ft | 11 kts | 151° |
| 2026-04-29 16:52 | 19.09093 | 72.87807 | 37 ft | 0 kts | 159° |
| 2026-04-29 16:52 | 19.09080 | 72.87814 | 37 ft | 4 kts | 148° |
| 2026-04-29 16:53 | 19.09062 | 72.87848 | 37 ft | 7 kts | 104° |
| 2026-04-29 16:53 | 19.09058 | 72.87912 | 37 ft | 10 kts | 89° |
| 2026-04-29 16:53 | 19.09060 | 72.87973 | 38 ft | 2 kts | 88° |
| 2026-04-29 16:53 | 19.09060 | 72.87994 | 38 ft | 2 kts | 91° |
| 2026-04-29 16:54 | 19.09060 | 72.87997 | 38 ft | 0 kts | 93° |
| 2026-04-29 16:56 | 19.09060 | 72.88004 | 38 ft | 3 kts | 93° |
| 2026-04-29 16:56 | 19.09056 | 72.88036 | 38 ft | 5 kts | 106° |
| 2026-04-29 16:56 | 19.09016 | 72.88049 | 38 ft | 8 kts | 176° |
| 2026-04-29 16:56 | 19.08993 | 72.88049 | 38 ft | 0 kts | 185° |
| 2026-04-29 16:58 | 19.08990 | 72.88049 | 38 ft | 2 kts | 185° |
| 2026-04-29 16:58 | 19.08957 | 72.88041 | 37 ft | 7 kts | 206° |
| 2026-04-29 16:58 | 19.08918 | 72.87992 | 37 ft | 10 kts | 237° |
| 2026-04-29 16:58 | 19.08890 | 72.87913 | 37 ft | 13 kts | 256° |
| 2026-04-29 16:59 | 19.08879 | 72.87776 | 37 ft | 38 kts | 266° |
| 2026-04-29 16:59 | 19.08872 | 72.87247 | 36 ft | 103 kts | 269° |
| 2026-04-29 16:59 | 19.08860 | 72.86303 | 31 ft | 151 kts | 268° |
| 2026-04-29 16:59 | 19.08809 | 72.85153 | 458 ft | 155 kts | 266° |
| 2026-04-29 17:00 | 19.08755 | 72.83966 | 765 ft | 168 kts | 268° |
| 2026-04-29 17:00 | 19.08687 | 72.82730 | 1213 ft | 168 kts | 267° |
| 2026-04-29 17:00 | 19.08626 | 72.81486 | 1662 ft | 171 kts | 267° |
| 2026-04-29 17:00 | 19.08562 | 72.80250 | 2257 ft | 161 kts | 267° |
| 2026-04-29 17:01 | 19.08537 | 72.79080 | 2824 ft | 159 kts | 272° |
| 2026-04-29 17:01 | 19.08700 | 72.77940 | 3450 ft | 160 kts | 287° |
| 2026-04-29 17:01 | 19.09186 | 72.76855 | 4100 ft | 166 kts | 303° |
| 2026-04-29 17:01 | 19.09967 | 72.75932 | 4715 ft | 174 kts | 319° |
| 2026-04-29 17:02 | 19.11026 | 72.75222 | 5284 ft | 186 kts | 333° |
| 2026-04-29 17:02 | 19.12290 | 72.74789 | 5884 ft | 197 kts | 344° |
| 2026-04-29 17:02 | 19.13646 | 72.74523 | 6549 ft | 201 kts | 347° |
| 2026-04-29 17:02 | 19.15035 | 72.74345 | 7310 ft | 195 kts | 354° |
| 2026-04-29 17:03 | 19.16344 | 72.74485 | 8262 ft | 184 kts | 7° |
| 2026-04-29 17:03 | 19.17565 | 72.74759 | 9031 ft | 179 kts | 6° |
| 2026-04-29 17:03 | 19.18824 | 72.74877 | 9422 ft | 192 kts | 352° |
| 2026-04-29 17:03 | 19.20227 | 72.74722 | 9702 ft | 215 kts | 347° |
| 2026-04-29 17:04 | 19.21821 | 72.74501 | 9809 ft | 246 kts | 349° |
| 2026-04-29 17:04 | 19.23634 | 72.74305 | 9854 ft | 280 kts | 352° |
| 2026-04-29 17:04 | 19.25704 | 72.74144 | 9850 ft | 316 kts | 353° |
| 2026-04-29 17:04 | 19.28014 | 72.74004 | 9847 ft | 345 kts | 354° |
| 2026-04-29 17:05 | 19.30437 | 72.73991 | 9875 ft | 349 kts | 1° |
| 2026-04-29 17:05 | 19.32861 | 72.74328 | 9907 ft | 355 kts | 6° |
| 2026-04-29 17:05 | 19.35320 | 72.74724 | 10466 ft | 356 kts | 5° |
| 2026-04-29 17:05 | 19.37768 | 72.75106 | 11364 ft | 355 kts | 6° |
| 2026-04-29 17:06 | 19.40186 | 72.75477 | 12127 ft | 358 kts | 6° |
| 2026-04-29 17:06 | 19.42663 | 72.75856 | 12910 ft | 360 kts | 6° |
| 2026-04-29 17:06 | 19.45151 | 72.76237 | 13670 ft | 363 kts | 7° |
| 2026-04-29 17:06 | 19.47658 | 72.76621 | 14360 ft | 364 kts | 7° |
| 2026-04-29 17:07 | 19.50161 | 72.77006 | 15093 ft | 364 kts | 7° |
| 2026-04-29 17:07 | 19.51864 | 72.77268 | 15573 ft | 365 kts | 7° |
| 2026-04-29 17:07 | 19.55199 | 72.77781 | 16513 ft | 366 kts | 7° |
| 2026-04-29 17:07 | 19.57733 | 72.78171 | 17199 ft | 368 kts | 6° |
| 2026-04-29 17:08 | 19.60277 | 72.78562 | 17892 ft | 369 kts | 6° |
| 2026-04-29 17:08 | 19.62828 | 72.78955 | 18508 ft | 372 kts | 6° |
| 2026-04-29 17:08 | 19.65403 | 72.79352 | 19028 ft | 376 kts | 6° |
| 2026-04-29 17:08 | 19.68000 | 72.79752 | 19586 ft | 379 kts | 6° |
| 2026-04-29 17:09 | 19.70616 | 72.80155 | 20134 ft | 382 kts | 6° |
| 2026-04-29 17:09 | 19.73261 | 72.80562 | 20688 ft | 385 kts | 6° |
| 2026-04-29 17:09 | 19.75922 | 72.80972 | 21234 ft | 388 kts | 7° |
| 2026-04-29 17:09 | 19.78572 | 72.81381 | 21797 ft | 391 kts | 7° |
| 2026-04-29 17:10 | 19.81276 | 72.81798 | 22347 ft | 395 kts | 7° |
| 2026-04-29 17:10 | 19.84011 | 72.82220 | 22885 ft | 398 kts | 7° |
| 2026-04-29 17:10 | 19.86763 | 72.82646 | 23431 ft | 402 kts | 7° |
| 2026-04-29 17:10 | 19.89545 | 72.83076 | 23873 ft | 405 kts | 6° |
| 2026-04-29 17:11 | 19.92342 | 72.83509 | 24322 ft | 408 kts | 6° |
| 2026-04-29 17:11 | 19.95170 | 72.83946 | 24739 ft | 412 kts | 6° |
| 2026-04-29 17:11 | 19.98015 | 72.84387 | 25215 ft | 413 kts | 6° |
| 2026-04-29 17:11 | 20.00875 | 72.84831 | 25613 ft | 417 kts | 6° |
| 2026-04-29 17:12 | 20.03763 | 72.85278 | 25962 ft | 421 kts | 6° |
| 2026-04-29 17:12 | 20.06671 | 72.85729 | 26355 ft | 424 kts | 5° |
| 2026-04-29 17:12 | 20.09603 | 72.86179 | 26732 ft | 427 kts | 5° |
| 2026-04-29 17:12 | 20.10559 | 72.86314 | 26847 ft | 427 kts | 4° |
| 2026-04-29 17:13 | 20.15495 | 72.86938 | 27405 ft | 432 kts | 3° |
| 2026-04-29 17:13 | 20.18500 | 72.87306 | 27749 ft | 435 kts | 3° |
| 2026-04-29 17:13 | 20.21517 | 72.87682 | 28078 ft | 438 kts | 3° |
| 2026-04-29 17:13 | 20.24557 | 72.88066 | 28404 ft | 441 kts | 3° |
| 2026-04-29 17:14 | 20.27613 | 72.88456 | 28695 ft | 444 kts | 3° |
| 2026-04-29 17:14 | 20.30687 | 72.88849 | 29019 ft | 445 kts | 3° |
| 2026-04-29 17:14 | 20.33782 | 72.89245 | 29306 ft | 448 kts | 3° |
| 2026-04-29 17:14 | 20.36890 | 72.89644 | 29579 ft | 451 kts | 3° |
| 2026-04-29 17:15 | 20.40012 | 72.90044 | 29867 ft | 453 kts | 3° |
| 2026-04-29 17:15 | 20.42093 | 72.90311 | 30037 ft | 454 kts | 3° |
| 2026-04-29 17:15 | 20.45227 | 72.90713 | 30371 ft | 454 kts | 3° |
| 2026-04-29 17:15 | 20.49420 | 72.91252 | 30852 ft | 453 kts | 3° |
| 2026-04-29 17:16 | 20.51486 | 72.91517 | 31105 ft | 452 kts | 4° |
| 2026-04-29 17:16 | 20.55600 | 72.92046 | 31713 ft | 447 kts | 4° |
| 2026-04-29 17:16 | 20.58678 | 72.92442 | 32207 ft | 442 kts | 4° |
| 2026-04-29 17:16 | 20.60695 | 72.92701 | 32543 ft | 439 kts | 4° |
| 2026-04-29 17:17 | 20.63706 | 72.93089 | 33099 ft | 432 kts | 4° |
| 2026-04-29 17:17 | 20.66679 | 72.93471 | 33565 ft | 427 kts | 4° |
| 2026-04-29 17:17 | 20.69620 | 72.93848 | 33942 ft | 424 kts | 4° |
| 2026-04-29 17:17 | 20.72548 | 72.94224 | 34179 ft | 424 kts | 4° |
| 2026-04-29 17:18 | 20.75481 | 72.94588 | 34371 ft | 424 kts | 2° |
| 2026-04-29 17:18 | 20.78430 | 72.94740 | 34558 ft | 423 kts | 359° |
| 2026-04-29 17:18 | 20.81376 | 72.94839 | 34763 ft | 424 kts | 359° |
| 2026-04-29 17:18 | 20.84327 | 72.94946 | 34976 ft | 424 kts | 359° |
| 2026-04-29 17:19 | 20.87278 | 72.95056 | 35195 ft | 424 kts | 359° |
| 2026-04-29 17:19 | 20.90185 | 72.95163 | 35486 ft | 422 kts | 359° |
| 2026-04-29 17:19 | 20.93124 | 72.95270 | 35678 ft | 423 kts | 359° |
| 2026-04-29 17:19 | 20.96074 | 72.95379 | 35933 ft | 422 kts | 359° |
| 2026-04-29 17:20 | 20.99008 | 72.95487 | 36166 ft | 422 kts | 359° |
| 2026-04-29 17:20 | 21.01949 | 72.95594 | 36381 ft | 422 kts | 359° |
| 2026-04-29 17:20 | 21.04892 | 72.95702 | 36598 ft | 423 kts | 359° |
| 2026-04-29 17:20 | 21.07837 | 72.95809 | 36790 ft | 423 kts | 359° |
| 2026-04-29 17:21 | 21.10732 | 72.95915 | 36985 ft | 422 kts | 358° |
| 2026-04-29 17:21 | 21.13667 | 72.96023 | 37186 ft | 422 kts | 358° |
| 2026-04-29 17:21 | 21.19546 | 72.96240 | 37099 ft | 423 kts | 359° |
| 2026-04-29 17:22 | 21.22476 | 72.96381 | 36843 ft | 421 kts | 359° |
| 2026-04-29 17:22 | 21.25409 | 72.96541 | 36332 ft | 422 kts | 359° |
| 2026-04-29 17:22 | 21.28352 | 72.96701 | 35549 ft | 426 kts | 360° |
| 2026-04-29 17:22 | 21.31335 | 72.96861 | 34691 ft | 430 kts | 360° |
| 2026-04-29 17:23 | 21.34329 | 72.97020 | 33901 ft | 432 kts | 360° |
| 2026-04-29 17:23 | 21.37335 | 72.97178 | 33031 ft | 433 kts | 360° |
| 2026-04-29 17:23 | 21.40348 | 72.97337 | 32191 ft | 434 kts | 359° |
| 2026-04-29 17:23 | 21.43373 | 72.97496 | 31405 ft | 435 kts | 359° |
| 2026-04-29 17:24 | 21.46409 | 72.97655 | 30592 ft | 437 kts | 359° |
| 2026-04-29 17:24 | 21.49449 | 72.97813 | 30113 ft | 440 kts | 359° |
| 2026-04-29 17:24 | 21.52530 | 72.97973 | 29431 ft | 446 kts | 359° |
| 2026-04-29 17:24 | 21.55616 | 72.98084 | 28830 ft | 441 kts | 355° |
| 2026-04-29 17:25 | 21.58657 | 72.97872 | 28193 ft | 434 kts | 349° |
| 2026-04-29 17:25 | 21.61601 | 72.97319 | 27590 ft | 426 kts | 344° |
| 2026-04-29 17:25 | 21.64440 | 72.96502 | 26983 ft | 420 kts | 342° |
| 2026-04-29 17:25 | 21.67251 | 72.95674 | 26382 ft | 415 kts | 342° |
| 2026-04-29 17:26 | 21.69989 | 72.94875 | 25785 ft | 411 kts | 342° |
| 2026-04-29 17:26 | 21.72737 | 72.94074 | 25156 ft | 408 kts | 342° |
| 2026-04-29 17:26 | 21.75452 | 72.93279 | 24582 ft | 403 kts | 342° |
| 2026-04-29 17:26 | 21.78151 | 72.92487 | 24006 ft | 400 kts | 342° |
| 2026-04-29 17:27 | 21.80823 | 72.91703 | 23424 ft | 397 kts | 342° |
| 2026-04-29 17:27 | 21.83478 | 72.90922 | 22806 ft | 392 kts | 343° |
| 2026-04-29 17:27 | 21.86095 | 72.90153 | 22236 ft | 387 kts | 343° |
| 2026-04-29 17:27 | 21.88680 | 72.89394 | 21669 ft | 383 kts | 342° |
| 2026-04-29 17:28 | 21.91242 | 72.88641 | 21087 ft | 378 kts | 342° |
| 2026-04-29 17:28 | 21.93766 | 72.87898 | 20539 ft | 374 kts | 342° |
| 2026-04-29 17:28 | 21.96268 | 72.87161 | 19980 ft | 371 kts | 342° |
| 2026-04-29 17:28 | 21.98755 | 72.86428 | 19395 ft | 369 kts | 342° |
| 2026-04-29 17:29 | 22.01221 | 72.85701 | 18864 ft | 366 kts | 342° |
| 2026-04-29 17:29 | 22.03675 | 72.84978 | 18304 ft | 365 kts | 342° |
| 2026-04-29 17:29 | 22.06115 | 72.84259 | 17709 ft | 363 kts | 342° |
| 2026-04-29 17:29 | 22.07718 | 72.83787 | 17357 ft | 360 kts | 342° |
| 2026-04-29 17:30 | 22.10903 | 72.82848 | 16653 ft | 355 kts | 342° |
| 2026-04-29 17:30 | 22.13276 | 72.82148 | 16122 ft | 352 kts | 342° |
| 2026-04-29 17:30 | 22.15636 | 72.81451 | 15595 ft | 350 kts | 342° |
| 2026-04-29 17:30 | 22.17984 | 72.80758 | 15059 ft | 348 kts | 342° |
| 2026-04-29 17:31 | 22.20327 | 72.80066 | 14535 ft | 347 kts | 342° |
| 2026-04-29 17:31 | 22.22664 | 72.79375 | 14000 ft | 346 kts | 341° |
| 2026-04-29 17:31 | 22.24974 | 72.78692 | 13460 ft | 346 kts | 341° |
| 2026-04-29 17:31 | 22.27283 | 72.78020 | 12950 ft | 343 kts | 342° |
| 2026-04-29 17:32 | 22.29582 | 72.77360 | 12434 ft | 340 kts | 342° |
| 2026-04-29 17:32 | 22.31862 | 72.76707 | 11934 ft | 338 kts | 342° |
| 2026-04-29 17:32 | 22.34094 | 72.76066 | 11434 ft | 336 kts | 342° |
| 2026-04-29 17:32 | 22.36346 | 72.75419 | 10934 ft | 334 kts | 342° |
| 2026-04-29 17:33 | 22.38585 | 72.74775 | 10423 ft | 333 kts | 342° |
| 2026-04-29 17:33 | 22.40822 | 72.74130 | 10067 ft | 327 kts | 342° |
| 2026-04-29 17:33 | 22.42973 | 72.73512 | 9944 ft | 313 kts | 342° |
| 2026-04-29 17:33 | 22.45034 | 72.72921 | 9821 ft | 300 kts | 341° |
| 2026-04-29 17:34 | 22.47028 | 72.72346 | 9516 ft | 294 kts | 341° |
| 2026-04-29 17:34 | 22.48974 | 72.71781 | 9332 ft | 285 kts | 342° |
| 2026-04-29 17:34 | 22.50882 | 72.71228 | 8975 ft | 282 kts | 342° |
| 2026-04-29 17:34 | 22.52746 | 72.70689 | 8600 ft | 280 kts | 342° |
| 2026-04-29 17:35 | 22.55885 | 72.69783 | 8002 ft | 276 kts | 341° |
| 2026-04-29 17:35 | 22.58344 | 72.69070 | 7887 ft | 283 kts | 341° |
| 2026-04-29 17:35 | 22.60256 | 72.68510 | 7787 ft | 283 kts | 341° |
| 2026-04-29 17:36 | 22.62165 | 72.67952 | 7462 ft | 283 kts | 341° |
| 2026-04-29 17:36 | 22.64068 | 72.67395 | 7076 ft | 283 kts | 341° |
| 2026-04-29 17:36 | 22.65943 | 72.66847 | 6692 ft | 282 kts | 341° |
| 2026-04-29 17:36 | 22.67834 | 72.66295 | 6297 ft | 281 kts | 341° |
| 2026-04-29 17:37 | 22.69720 | 72.65744 | 5903 ft | 280 kts | 341° |
| 2026-04-29 17:37 | 22.71598 | 72.65196 | 5507 ft | 279 kts | 341° |
| 2026-04-29 17:37 | 22.73457 | 72.64653 | 5202 ft | 274 kts | 341° |
| 2026-04-29 17:37 | 22.75282 | 72.64121 | 4922 ft | 269 kts | 340° |
| 2026-04-29 17:38 | 22.77087 | 72.63593 | 4647 ft | 268 kts | 340° |
| 2026-04-29 17:38 | 22.78889 | 72.63065 | 4359 ft | 268 kts | 340° |
| 2026-04-29 17:38 | 22.80664 | 72.62547 | 4082 ft | 267 kts | 339° |
| 2026-04-29 17:38 | 22.82441 | 72.62028 | 3917 ft | 260 kts | 339° |
| 2026-04-29 17:39 | 22.84152 | 72.61533 | 3824 ft | 248 kts | 339° |
| 2026-04-29 17:39 | 22.85783 | 72.61066 | 3756 ft | 235 kts | 339° |
| 2026-04-29 17:39 | 22.87334 | 72.60689 | 3739 ft | 225 kts | 351° |
| 2026-04-29 17:39 | 22.88906 | 72.61053 | 3750 ft | 244 kts | 22° |
| 2026-04-29 17:40 | 22.90256 | 72.62207 | 3744 ft | 249 kts | 40° |
| 2026-04-29 17:40 | 22.91458 | 72.63552 | 3747 ft | 247 kts | 42° |
| 2026-04-29 17:40 | 22.92627 | 72.64923 | 3745 ft | 247 kts | 42° |
| 2026-04-29 17:40 | 22.93805 | 72.66285 | 3745 ft | 249 kts | 41° |
| 2026-04-29 17:41 | 22.95014 | 72.67644 | 3748 ft | 250 kts | 41° |
| 2026-04-29 17:41 | 22.96215 | 72.68976 | 3746 ft | 250 kts | 41° |
| 2026-04-29 17:41 | 22.97429 | 72.70312 | 3744 ft | 247 kts | 40° |
| 2026-04-29 17:41 | 22.98641 | 72.71639 | 3746 ft | 248 kts | 40° |
| 2026-04-29 17:42 | 22.99859 | 72.72970 | 3747 ft | 248 kts | 40° |
| 2026-04-29 17:42 | 23.01080 | 72.74304 | 3747 ft | 250 kts | 40° |
| 2026-04-29 17:42 | 23.02311 | 72.75641 | 3699 ft | 249 kts | 39° |
| 2026-04-29 17:42 | 23.03552 | 72.76959 | 3603 ft | 248 kts | 39° |
| 2026-04-29 17:43 | 23.04789 | 72.78263 | 3411 ft | 247 kts | 39° |
| 2026-04-29 17:43 | 23.06024 | 72.79563 | 3213 ft | 249 kts | 39° |
| 2026-04-29 17:43 | 23.07262 | 72.80873 | 3009 ft | 248 kts | 39° |
| 2026-04-29 17:43 | 23.08484 | 72.82171 | 2798 ft | 244 kts | 39° |
| 2026-04-29 17:44 | 23.09690 | 72.83455 | 2611 ft | 245 kts | 39° |
| 2026-04-29 17:44 | 23.10899 | 72.84736 | 2403 ft | 245 kts | 40° |
| 2026-04-29 17:44 | 23.12098 | 72.86013 | 2209 ft | 239 kts | 40° |
| 2026-04-29 17:44 | 23.13292 | 72.87279 | 2043 ft | 241 kts | 41° |
| 2026-04-29 17:45 | 23.14526 | 72.88450 | 2010 ft | 225 kts | 24° |
| 2026-04-29 17:45 | 23.15904 | 72.88828 | 1997 ft | 187 kts | 347° |
| 2026-04-29 17:45 | 23.16924 | 72.88334 | 1997 ft | 142 kts | 304° |
| 2026-04-29 17:45 | 23.17357 | 72.87427 | 2010 ft | 136 kts | 282° |
| 2026-04-29 17:46 | 23.17669 | 72.86458 | 2004 ft | 135 kts | 286° |
| 2026-04-29 17:46 | 23.18033 | 72.85514 | 2004 ft | 136 kts | 288° |
| 2026-04-29 17:46 | 23.18420 | 72.84581 | 2004 ft | 138 kts | 290° |
| 2026-04-29 17:46 | 23.18826 | 72.83640 | 2004 ft | 137 kts | 291° |
| 2026-04-29 17:47 | 23.19231 | 72.82708 | 2004 ft | 137 kts | 291° |
| 2026-04-29 17:47 | 23.19639 | 72.81771 | 2003 ft | 137 kts | 291° |
| 2026-04-29 17:47 | 23.20044 | 72.80835 | 2003 ft | 137 kts | 291° |
| 2026-04-29 17:47 | 23.20447 | 72.79906 | 2003 ft | 136 kts | 290° |
| 2026-04-29 17:48 | 23.20797 | 72.78958 | 2001 ft | 134 kts | 277° |
| 2026-04-29 17:48 | 23.20741 | 72.77953 | 2004 ft | 136 kts | 252° |
| 2026-04-29 17:48 | 23.20293 | 72.77063 | 2001 ft | 134 kts | 235° |
| 2026-04-29 17:48 | 23.19678 | 72.76291 | 2001 ft | 136 kts | 230° |
| 2026-04-29 17:49 | 23.19005 | 72.75555 | 2000 ft | 137 kts | 229° |
| 2026-04-29 17:49 | 23.18327 | 72.74826 | 2002 ft | 137 kts | 228° |
| 2026-04-29 17:49 | 23.17644 | 72.74091 | 2004 ft | 140 kts | 228° |
| 2026-04-29 17:49 | 23.16955 | 72.73350 | 2000 ft | 138 kts | 228° |
| 2026-04-29 17:50 | 23.16275 | 72.72621 | 2003 ft | 137 kts | 227° |
| 2026-04-29 17:50 | 23.15605 | 72.71900 | 1956 ft | 138 kts | 229° |
| 2026-04-29 17:50 | 23.14934 | 72.71181 | 1781 ft | 134 kts | 228° |
| 2026-04-29 17:50 | 23.14260 | 72.70453 | 1621 ft | 138 kts | 227° |
| 2026-04-29 17:51 | 23.13578 | 72.69722 | 1444 ft | 137 kts | 226° |
| 2026-04-29 17:51 | 23.12903 | 72.68997 | 1276 ft | 137 kts | 225° |
| 2026-04-29 17:51 | 23.12216 | 72.68259 | 1101 ft | 139 kts | 226° |
| 2026-04-29 17:51 | 23.11539 | 72.67502 | 833 ft | 143 kts | 225° |
| 2026-04-29 17:52 | 23.10845 | 72.66725 | 694 ft | 142 kts | 223° |
| 2026-04-29 17:52 | 23.10370 | 72.66224 | 599 ft | 144 kts | 221° |
| 2026-04-29 17:52 | 23.09424 | 72.65238 | 415 ft | 136 kts | 222° |
| 2026-04-29 17:52 | 23.08739 | 72.64508 | 251 ft | 140 kts | 223° |
| 2026-04-29 17:53 | 23.08053 | 72.63803 | 190 ft | 123 kts | 222° |
| 2026-04-29 17:53 | 23.07656 | 72.63389 | 197 ft | 38 kts | 225° |
| 2026-04-29 17:53 | 23.07519 | 72.63241 | 206 ft | 28 kts | 223° |
| 2026-04-29 17:53 | 23.07381 | 72.63087 | 195 ft | 29 kts | 225° |
| 2026-04-29 17:54 | 23.07233 | 72.62929 | 189 ft | 30 kts | 227° |
| 2026-04-29 17:54 | 23.07165 | 72.62732 | 189 ft | 17 kts | 254° |
| 2026-04-29 17:54 | 23.07161 | 72.62716 | 195 ft | 0 kts | 254° |
| 2026-04-29 17:56 | 23.07159 | 72.62709 | 199 ft | 3 kts | 254° |
| 2026-04-29 17:56 | 23.07150 | 72.62675 | 189 ft | 7 kts | 254° |
| 2026-04-29 17:56 | 23.07135 | 72.62614 | 191 ft | 10 kts | 254° |
| 2026-04-29 17:57 | 23.07100 | 72.62536 | 187 ft | 13 kts | 229° |
| 2026-04-29 17:57 | 23.07030 | 72.62459 | 192 ft | 16 kts | 225° |
| 2026-04-29 17:57 | 23.06948 | 72.62370 | 190 ft | 18 kts | 224° |
| 2026-04-29 17:57 | 23.06886 | 72.62306 | 199 ft | 19 kts | 224° |
| 2026-04-29 17:58 | 23.06753 | 72.62168 | 200 ft | 19 kts | 223° |
| 2026-04-29 17:58 | 23.06781 | 72.62051 | 198 ft | 20 kts | 314° |
| 2026-04-29 17:58 | 23.06885 | 72.61937 | 191 ft | 23 kts | 314° |
| 2026-04-29 17:58 | 23.07003 | 72.61810 | 191 ft | 25 kts | 314° |
| 2026-04-29 17:59 | 23.07118 | 72.61703 | 190 ft | 20 kts | 349° |
| 2026-04-29 17:59 | 23.07159 | 72.61762 | 187 ft | 9 kts | 103° |
| 2026-04-29 17:59 | 23.07122 | 72.61825 | 190 ft | 11 kts | 137° |
| 2026-04-29 17:59 | 23.07076 | 72.61871 | 190 ft | 5 kts | 134° |
| 2026-04-29 18:00 | 23.07072 | 72.61893 | 187 ft | 3 kts | 99° |
| 2026-04-29 18:00 | 23.07072 | 72.61909 | 200 ft | 1 kts | 86° |
| 2026-04-29 18:00 | 23.07072 | 72.61911 | 200 ft | 0 kts | 84° |